Grand Isle, Louisiana
Current Conditions -  °F | °C
As of 10:55 AM on Friday 28 Nov 2014 (Local Time) from KXPY Reporting Station
Clear Clear  
Wind Chill: 57°   Ceiling: Unl
Heat Index: 57°   Visibility: 10mi
Dew Point: 46°   Wind: 13mph
Humidity: 67%   Direction: 70°ENE
Pressure: 30.43"   Gusts: NA
Location:  29.24°N, 89.99°W
Report Text: KXPY 281655Z AUTO 07011KT 10SM CLR 14/08 A3043 RMK A01
Loading
Personal Weather Stations






























Interactive Weather Map New forecast layout! Learn more

10-Day Weather Forecast

Advertisements
Track Severe Weather on mobile